createdAt,value
2023-05-17T00:02:07.645Z,53.42
2023-05-17T00:04:37.736Z,49.55
2023-05-17T00:07:07.763Z,51.35
2023-05-17T00:09:38.034Z,47.00
2023-05-17T00:12:08.167Z,52.95
2023-05-17T00:14:38.261Z,50.65
2023-05-17T00:17:08.810Z,54.15
2023-05-17T00:19:39.037Z,54.88
2023-05-17T00:22:09.700Z,53.88
2023-05-17T00:24:39.733Z,50.80
2023-05-17T00:27:09.756Z,47.75
2023-05-17T00:29:39.975Z,49.45
2023-05-17T00:32:09.970Z,46.70
2023-05-17T00:34:39.915Z,42.78
2023-05-17T00:37:09.745Z,45.30
2023-05-17T00:39:39.945Z,47.25
2023-05-17T00:42:10.153Z,48.88
2023-05-17T00:44:40.117Z,51.97
2023-05-17T00:47:09.898Z,54.53
2023-05-17T00:49:40.379Z,56.03
2023-05-17T00:52:11.722Z,50.42
2023-05-17T00:54:42.624Z,46.95
2023-05-17T00:57:13.207Z,46.97
2023-05-17T00:59:46.809Z,46.58
2023-05-17T01:02:17.238Z,43.75
2023-05-17T01:04:47.214Z,44.88
2023-05-17T01:07:19.410Z,40.97
2023-05-17T01:09:50.204Z,45.90
2023-05-17T01:12:48.440Z,43.15
2023-05-17T01:15:30.831Z,46.00
2023-05-17T01:18:25.650Z,40.38
2023-05-17T01:21:01.056Z,42.78
2023-05-17T01:23:53.919Z,44.80
2023-05-17T01:26:48.233Z,45.58
2023-05-17T01:29:22.695Z,40.63
2023-05-17T01:31:53.250Z,41.10
2023-05-17T01:34:30.757Z,36.50
2023-05-17T01:37:01.985Z,40.58
2023-05-17T01:39:33.442Z,43.85
2023-05-17T01:42:18.546Z,39.05
2023-05-17T01:44:59.209Z,37.60
2023-05-17T01:47:51.328Z,35.95
2023-05-17T01:50:26.368Z,35.60
2023-05-17T01:53:17.680Z,37.10
2023-05-17T01:55:58.591Z,33.70
2023-05-17T01:58:31.366Z,36.70
2023-05-17T02:01:04.081Z,30.35
2023-05-17T02:03:35.001Z,35.35
2023-05-17T02:06:05.456Z,34.63
2023-05-17T02:08:35.665Z,32.85
2023-05-17T02:11:05.808Z,37.45
2023-05-17T02:13:36.225Z,43.53
2023-05-17T02:16:06.879Z,31.83
2023-05-17T02:18:37.201Z,39.13
2023-05-17T02:21:07.811Z,37.45
2023-05-17T02:23:39.594Z,34.55
2023-05-17T02:26:09.778Z,53.28
2023-05-17T02:28:39.542Z,52.00
2023-05-17T02:31:11.143Z,33.60
2023-05-17T02:33:42.324Z,37.13
2023-05-17T02:36:12.911Z,39.60
2023-05-17T02:38:42.712Z,34.55
2023-05-17T02:41:15.024Z,43.13
2023-05-17T02:43:45.185Z,31.23
2023-05-17T02:46:15.392Z,31.38
2023-05-17T02:48:47.284Z,33.45
2023-05-17T02:51:17.291Z,33.45
2023-05-17T02:53:47.462Z,36.42
2023-05-17T02:56:17.662Z,30.80
2023-05-17T02:58:47.934Z,30.77
2023-05-17T03:01:18.371Z,29.75
2023-05-17T03:03:48.513Z,33.28
2023-05-17T03:06:18.812Z,30.60
2023-05-17T03:08:48.656Z,27.02
2023-05-17T03:11:19.210Z,30.80
2023-05-17T03:13:53.015Z,30.52
2023-05-17T03:16:28.081Z,29.65
2023-05-17T03:18:59.640Z,29.92
2023-05-17T03:21:30.135Z,29.73
2023-05-17T03:24:00.011Z,25.88
2023-05-17T03:26:34.800Z,28.55
2023-05-17T03:29:05.261Z,26.88
2023-05-17T03:31:35.475Z,35.30
2023-05-17T03:34:05.945Z,28.17
2023-05-17T03:36:37.443Z,30.80
2023-05-17T03:39:07.741Z,28.23
2023-05-17T03:41:39.558Z,30.52
2023-05-17T03:44:10.405Z,28.38
2023-05-17T03:46:40.561Z,29.25
2023-05-17T03:49:11.445Z,29.70
2023-05-17T03:51:42.522Z,32.78
2023-05-17T03:54:12.768Z,28.58
2023-05-17T03:56:42.522Z,26.33
2023-05-17T03:59:12.485Z,28.63
2023-05-17T04:01:44.774Z,29.48
2023-05-17T04:04:16.400Z,33.03
2023-05-17T04:06:46.530Z,27.05
2023-05-17T04:09:17.143Z,29.17
2023-05-17T04:11:47.353Z,25.30
2023-05-17T04:14:17.511Z,26.00
2023-05-17T04:16:48.378Z,26.88
2023-05-17T04:19:18.861Z,31.38
2023-05-17T04:21:49.125Z,27.58
2023-05-17T04:24:19.393Z,35.85
2023-05-17T04:26:49.634Z,34.58
2023-05-17T04:29:22.083Z,27.67
2023-05-17T04:31:52.537Z,29.90
2023-05-17T04:34:23.958Z,28.63
2023-05-17T04:36:55.786Z,26.88
2023-05-17T04:39:26.367Z,25.70
2023-05-17T04:41:56.886Z,24.50
2023-05-17T04:44:27.402Z,27.23
2023-05-17T04:46:58.283Z,27.05
2023-05-17T04:49:29.884Z,23.98
2023-05-17T04:52:00.655Z,28.13
2023-05-17T04:54:30.795Z,27.23
2023-05-17T04:57:01.088Z,26.33
2023-05-17T04:59:50.601Z,28.10
2023-05-17T05:02:20.917Z,26.15
2023-05-17T05:04:50.959Z,29.88
2023-05-17T05:07:23.792Z,26.80
2023-05-17T05:09:54.037Z,27.40
2023-05-17T05:12:26.017Z,25.15
2023-05-17T05:14:56.505Z,25.23
2023-05-17T05:17:27.449Z,24.25
2023-05-17T05:19:57.938Z,25.23
2023-05-17T05:22:29.218Z,23.38
2023-05-17T05:24:59.442Z,25.33
2023-05-17T05:27:29.349Z,27.58
2023-05-17T05:29:59.479Z,22.52
2023-05-17T05:32:29.626Z,25.38
2023-05-17T05:35:00.057Z,26.95
2023-05-17T05:37:29.929Z,23.38
2023-05-17T05:40:00.806Z,27.40
2023-05-17T05:42:31.831Z,24.65
2023-05-17T05:45:02.159Z,24.25
2023-05-17T05:47:32.097Z,25.95
2023-05-17T05:50:02.317Z,25.52
2023-05-17T05:52:34.412Z,25.42
2023-05-17T05:55:04.644Z,27.15
2023-05-17T05:57:34.430Z,26.90
2023-05-17T06:00:06.414Z,25.13
2023-05-17T06:02:42.804Z,25.27
2023-05-17T06:05:12.861Z,26.35
2023-05-17T06:07:42.690Z,26.77
2023-05-17T06:10:13.575Z,25.05
2023-05-17T06:12:46.306Z,26.35
2023-05-17T06:15:16.433Z,30.02
2023-05-17T06:17:46.360Z,24.65
2023-05-17T06:20:17.907Z,27.17
2023-05-17T06:22:48.158Z,32.40
2023-05-17T06:25:17.956Z,27.50
2023-05-17T06:27:47.997Z,24.25
2023-05-17T06:30:17.811Z,23.75
2023-05-17T06:32:48.010Z,25.70
2023-05-17T06:35:17.984Z,24.88
2023-05-17T06:37:48.413Z,24.63
2023-05-17T06:40:18.412Z,25.58
2023-05-17T06:42:50.148Z,25.30
2023-05-17T06:45:22.516Z,22.95
2023-05-17T06:47:52.974Z,25.02
2023-05-17T06:50:22.965Z,24.67
2023-05-17T06:52:52.774Z,27.15
2023-05-17T06:55:22.992Z,22.92
2023-05-17T06:57:52.798Z,24.42
2023-05-17T07:00:22.955Z,27.98
2023-05-17T07:02:52.797Z,26.10
2023-05-17T07:05:25.774Z,26.35
2023-05-17T07:07:58.865Z,26.98
2023-05-17T07:10:29.116Z,27.38
2023-05-17T07:12:58.853Z,27.73
2023-05-17T07:15:29.078Z,25.00
2023-05-17T07:18:01.422Z,25.23
2023-05-17T07:20:32.068Z,21.95
2023-05-17T07:23:02.865Z,22.70
2023-05-17T07:25:33.685Z,27.40
2023-05-17T07:28:03.986Z,24.38
2023-05-17T07:30:33.959Z,22.30
2023-05-17T07:33:07.494Z,22.08
2023-05-17T07:35:37.827Z,26.65
2023-05-17T07:38:08.136Z,27.35
2023-05-17T07:40:38.799Z,24.95
2023-05-17T07:43:08.633Z,25.00
2023-05-17T07:45:38.964Z,26.40
2023-05-17T07:48:09.376Z,22.25
2023-05-17T07:50:40.172Z,23.92
2023-05-17T07:53:10.241Z,22.02
2023-05-17T07:55:40.755Z,21.75
2023-05-17T07:58:13.493Z,26.50
2023-05-17T08:00:44.466Z,23.48
2023-05-17T08:03:17.231Z,23.55
2023-05-17T08:05:48.043Z,24.85
2023-05-17T08:08:18.276Z,22.35
2023-05-17T08:10:49.437Z,26.17
2023-05-17T08:13:20.176Z,23.48
2023-05-17T08:15:51.657Z,23.27
2023-05-17T08:18:25.057Z,22.23
2023-05-17T08:20:55.669Z,20.85
2023-05-17T08:23:25.624Z,22.13
2023-05-17T08:25:56.028Z,20.90
2023-05-17T08:28:26.160Z,22.70
2023-05-17T08:30:56.071Z,23.58
2023-05-17T08:33:28.030Z,20.77
2023-05-17T08:35:59.773Z,21.80
2023-05-17T08:38:30.255Z,21.25
2023-05-17T08:41:01.706Z,22.65
2023-05-17T08:43:35.818Z,23.17
2023-05-17T08:46:06.248Z,24.95
2023-05-17T08:48:43.552Z,23.48
2023-05-17T08:51:14.839Z,22.42
2023-05-17T08:53:48.569Z,19.08
2023-05-17T08:56:23.100Z,19.88
2023-05-17T08:58:58.440Z,26.23
2023-05-17T09:01:32.253Z,23.02
2023-05-17T09:04:03.742Z,35.72
2023-05-17T09:06:35.220Z,19.10
2023-05-17T09:09:09.570Z,20.08
2023-05-17T09:11:42.600Z,25.90
2023-05-17T09:14:13.174Z,21.13
2023-05-17T09:16:45.140Z,22.73
2023-05-17T09:19:19.768Z,24.15
2023-05-17T09:21:50.206Z,26.05
2023-05-17T09:24:29.467Z,25.40
2023-05-17T09:27:08.258Z,20.65
2023-05-17T09:29:41.515Z,25.85
2023-05-17T09:35:15.241Z,22.33
2023-05-17T09:37:47.544Z,26.08
2023-05-17T09:40:27.424Z,24.65
2023-05-17T09:42:57.926Z,22.67
2023-05-17T09:45:28.151Z,23.63
2023-05-17T09:47:58.598Z,24.35
2023-05-17T09:50:28.589Z,21.65
2023-05-17T09:52:58.588Z,22.13
2023-05-17T09:55:30.117Z,21.65
2023-05-17T09:58:05.389Z,23.35
2023-05-17T10:00:35.501Z,22.63
2023-05-17T10:03:08.104Z,23.70
2023-05-17T10:05:39.419Z,27.08
2023-05-17T10:08:09.715Z,22.85
2023-05-17T10:10:40.452Z,24.02
2023-05-17T10:13:14.585Z,25.27
2023-05-17T10:15:45.397Z,26.95
2023-05-17T10:18:17.003Z,22.45
2023-05-17T10:20:47.824Z,26.23
2023-05-17T10:23:18.572Z,28.52
2023-05-17T10:25:49.092Z,26.20
2023-05-17T10:28:20.643Z,28.45
2023-05-17T10:30:52.799Z,25.88
2023-05-17T10:33:24.666Z,25.13
2023-05-17T10:35:57.619Z,24.23
2023-05-17T10:38:41.653Z,28.88
2023-05-17T10:41:15.035Z,22.27
2023-05-17T10:43:47.303Z,26.42
2023-05-17T10:46:25.599Z,30.05
2023-05-17T10:48:59.791Z,21.55
2023-05-17T10:51:39.155Z,26.58
2023-05-17T10:54:19.737Z,24.33
2023-05-17T10:56:54.849Z,24.85
2023-05-17T10:59:28.507Z,28.05
2023-05-17T11:02:07.249Z,25.52
2023-05-17T11:04:40.236Z,24.85
2023-05-17T11:07:33.541Z,25.33
2023-05-17T11:10:16.047Z,28.75
2023-05-17T11:12:49.678Z,26.52
2023-05-17T11:15:20.155Z,29.15
2023-05-17T11:17:55.658Z,26.33
2023-05-17T11:20:44.529Z,28.38
2023-05-17T11:23:20.297Z,30.35
2023-05-17T11:25:52.146Z,30.40
2023-05-17T11:28:24.820Z,29.42
2023-05-17T11:31:03.000Z,30.52
2023-05-17T11:33:46.966Z,37.17
2023-05-17T11:36:23.022Z,34.95
2023-05-17T11:39:13.510Z,29.55
2023-05-17T11:41:54.345Z,39.53
2023-05-17T11:44:33.043Z,33.60
2023-05-17T11:47:06.002Z,31.35
2023-05-17T11:49:39.277Z,33.13
2023-05-17T11:52:10.197Z,28.98
2023-05-17T11:54:41.870Z,29.25
2023-05-17T11:57:14.054Z,29.88
2023-05-17T11:59:45.382Z,31.02
2023-05-17T12:02:29.936Z,40.78
2023-05-17T12:05:00.834Z,50.80
2023-05-17T12:07:31.932Z,59.65
2023-05-17T12:10:01.919Z,76.22
2023-05-17T12:12:32.255Z,124.53
2023-05-17T12:15:02.422Z,84.80
2023-05-17T12:17:39.146Z,80.82
2023-05-17T12:20:10.981Z,72.78
2023-05-17T12:23:01.328Z,72.20
2023-05-17T12:25:31.622Z,81.88
2023-05-17T12:28:23.858Z,65.47
2023-05-17T12:31:04.442Z,70.57
2023-05-17T12:33:37.894Z,69.63
2023-05-17T12:36:09.600Z,61.70
2023-05-17T12:38:42.166Z,71.35
2023-05-17T12:41:17.451Z,74.97
2023-05-17T12:43:48.398Z,59.38
2023-05-17T12:46:22.260Z,73.80
2023-05-17T12:48:59.442Z,55.42
2023-05-17T12:51:29.647Z,58.65
2023-05-17T12:54:02.102Z,55.00
2023-05-17T12:56:32.809Z,60.40
2023-05-17T12:59:22.642Z,56.88
2023-05-17T13:01:57.031Z,62.65
2023-05-17T13:04:34.989Z,62.30
2023-05-17T13:07:14.147Z,49.65
2023-05-17T13:09:50.643Z,51.30
2023-05-17T13:12:25.770Z,51.00
2023-05-17T13:14:56.320Z,59.47
2023-05-17T13:17:51.436Z,61.08
2023-05-17T13:20:21.684Z,60.97
2023-05-17T13:22:52.693Z,52.83
2023-05-17T13:25:23.038Z,49.17
2023-05-17T13:27:54.568Z,48.85
2023-05-17T13:30:24.910Z,48.05
2023-05-17T13:32:56.025Z,48.03
2023-05-17T13:35:26.220Z,46.17
2023-05-17T13:37:56.177Z,48.63
2023-05-17T13:40:26.433Z,53.40
2023-05-17T13:42:56.479Z,53.58
2023-05-17T13:45:26.801Z,46.17
2023-05-17T13:47:56.702Z,43.40
2023-05-17T13:50:27.694Z,43.28
2023-05-17T13:52:58.190Z,45.20
2023-05-17T13:55:28.180Z,38.85
2023-05-17T13:57:58.161Z,42.45
2023-05-17T14:00:28.629Z,47.50
2023-05-17T14:02:59.041Z,44.20
2023-05-17T14:05:29.238Z,47.40
2023-05-17T14:07:59.376Z,44.85
2023-05-17T14:10:29.377Z,43.53
2023-05-17T14:12:59.850Z,43.65
2023-05-17T14:15:29.712Z,45.20
2023-05-17T14:18:00.067Z,49.53
2023-05-17T14:20:30.588Z,54.20
2023-05-17T14:23:02.084Z,46.53
2023-05-17T14:25:32.334Z,38.67
2023-05-17T14:28:02.136Z,40.33
2023-05-17T14:30:32.359Z,43.13
2023-05-17T14:33:02.335Z,41.08
2023-05-17T14:35:32.744Z,39.90
2023-05-17T14:38:02.634Z,47.97
2023-05-17T14:40:33.006Z,53.13
2023-05-17T14:43:03.186Z,47.95
2023-05-17T14:45:33.055Z,45.35
2023-05-17T14:48:03.208Z,41.58
2023-05-17T14:50:36.028Z,45.25
2023-05-17T14:53:06.648Z,43.28
2023-05-17T14:55:37.010Z,45.45
2023-05-17T14:58:06.836Z,40.65
2023-05-17T15:00:37.049Z,45.63
2023-05-17T15:03:07.063Z,41.80
2023-05-17T15:05:36.932Z,47.55
2023-05-17T15:08:07.181Z,39.60
2023-05-17T15:10:37.439Z,38.58
2023-05-17T15:13:07.416Z,39.33
2023-05-17T15:15:38.280Z,41.80
2023-05-17T15:18:09.014Z,50.50
2023-05-17T15:20:40.546Z,44.42
2023-05-17T15:23:11.383Z,44.15
2023-05-17T15:25:41.500Z,47.78
2023-05-17T15:28:11.243Z,44.15
2023-05-17T15:30:43.400Z,45.72
2023-05-17T15:33:13.787Z,43.67
2023-05-17T15:35:44.682Z,37.95
2023-05-17T15:38:18.596Z,41.97
2023-05-17T15:40:48.616Z,48.15
2023-05-17T15:43:18.503Z,44.97
2023-05-17T15:45:48.505Z,39.53
2023-05-17T15:48:19.402Z,42.90
2023-05-17T15:50:49.599Z,42.53
2023-05-17T15:53:19.428Z,36.97
2023-05-17T15:55:52.932Z,44.03
2023-05-17T15:58:29.544Z,39.10
2023-05-17T16:00:59.723Z,40.70
2023-05-17T16:03:29.928Z,38.83
2023-05-17T16:06:00.518Z,38.35
2023-05-17T16:08:30.339Z,36.85
2023-05-17T16:11:02.584Z,39.92
2023-05-17T16:13:32.964Z,39.78
2023-05-17T16:16:03.268Z,36.55
2023-05-17T16:18:34.552Z,40.42
2023-05-17T16:21:06.571Z,42.72
2023-05-17T16:23:37.473Z,44.40
2023-05-17T16:26:08.667Z,43.83
2023-05-17T16:28:38.614Z,44.72
2023-05-17T16:31:08.819Z,37.72
2023-05-17T16:33:39.030Z,37.92
2023-05-17T16:36:09.201Z,39.65
2023-05-17T16:38:39.222Z,45.15
2023-05-17T16:41:09.381Z,34.55
2023-05-17T16:43:39.606Z,37.92
2023-05-17T16:46:09.328Z,39.92
2023-05-17T16:48:39.368Z,37.72
2023-05-17T16:51:09.161Z,35.28
2023-05-17T16:53:39.378Z,36.25
2023-05-17T16:56:09.296Z,39.58
2023-05-17T16:58:39.308Z,36.97
2023-05-17T17:01:09.059Z,40.10
2023-05-17T17:03:39.240Z,39.13
2023-05-17T17:06:09.060Z,37.65
2023-05-17T17:08:40.066Z,38.55
2023-05-17T17:11:10.268Z,41.75
2023-05-17T17:13:40.078Z,37.97
2023-05-17T17:16:10.109Z,42.80
2023-05-17T17:18:40.142Z,42.08
2023-05-17T17:21:10.276Z,45.53
2023-05-17T17:23:41.855Z,43.17
2023-05-17T17:26:15.406Z,46.08
2023-05-17T17:28:45.831Z,39.38
2023-05-17T17:31:15.737Z,41.78
2023-05-17T17:33:45.933Z,43.25
2023-05-17T17:36:16.214Z,39.33
2023-05-17T17:38:46.255Z,41.35
2023-05-17T17:41:16.047Z,40.10
2023-05-17T17:43:48.462Z,38.13
2023-05-17T17:46:19.130Z,43.90
2023-05-17T17:48:49.354Z,47.53
2023-05-17T17:51:19.243Z,41.80
2023-05-17T17:53:50.352Z,40.55
2023-05-17T17:56:20.990Z,38.72
2023-05-17T17:58:51.397Z,35.85
2023-05-17T18:01:21.224Z,48.72
2023-05-17T18:03:51.746Z,41.45
2023-05-17T18:06:21.560Z,40.35
2023-05-17T18:08:51.519Z,47.28
2023-05-17T18:11:21.291Z,44.05
2023-05-17T18:13:51.890Z,43.17
2023-05-17T18:16:21.922Z,45.95
2023-05-17T18:18:52.834Z,41.20
2023-05-17T18:21:23.435Z,43.13
2023-05-17T18:23:53.657Z,41.42
2023-05-17T18:26:24.657Z,44.20
2023-05-17T18:28:54.841Z,42.22
2023-05-17T18:31:24.703Z,43.20
2023-05-17T18:33:56.452Z,41.63
2023-05-17T18:36:27.769Z,44.72
2023-05-17T18:39:00.131Z,45.13
2023-05-17T18:41:30.429Z,48.58
2023-05-17T18:44:03.642Z,47.25
2023-05-17T18:46:34.578Z,42.60
2023-05-17T18:49:05.789Z,42.42
2023-05-17T18:51:36.097Z,46.55
2023-05-17T18:54:06.341Z,42.08
2023-05-17T18:56:36.346Z,39.10
2023-05-17T18:59:07.142Z,41.28
2023-05-17T19:01:38.686Z,43.17
2023-05-17T19:04:08.838Z,40.63
2023-05-17T19:06:42.735Z,40.42
2023-05-17T19:09:12.956Z,39.42
2023-05-17T19:11:42.802Z,43.38
2023-05-17T19:14:13.001Z,47.45
2023-05-17T19:16:43.469Z,49.38
2023-05-17T19:19:13.744Z,51.28
2023-05-17T19:21:43.967Z,49.28
2023-05-17T19:24:14.529Z,52.65
2023-05-17T19:26:44.409Z,51.28
2023-05-17T19:29:14.412Z,51.88
2023-05-17T19:31:44.341Z,50.45
2023-05-17T19:34:14.676Z,48.22
2023-05-17T19:36:44.578Z,48.50
2023-05-17T19:39:14.622Z,45.53
2023-05-17T19:41:44.443Z,52.45
2023-05-17T19:44:15.063Z,50.72
2023-05-17T19:46:45.258Z,51.47
2023-05-17T19:49:15.343Z,54.90
2023-05-17T19:51:46.877Z,48.75
2023-05-17T19:54:17.039Z,41.25
2023-05-17T19:56:47.542Z,47.80
2023-05-17T19:59:17.731Z,48.95
2023-05-17T20:01:47.803Z,48.65
2023-05-17T20:04:18.625Z,47.05
2023-05-17T20:06:48.578Z,44.03
2023-05-17T20:09:18.964Z,59.63
2023-05-17T20:11:49.628Z,52.78
2023-05-17T20:14:20.035Z,51.65
2023-05-17T20:16:50.427Z,47.28
2023-05-17T20:19:20.795Z,47.50
2023-05-17T20:21:51.011Z,55.15
2023-05-17T20:24:23.855Z,54.97
2023-05-17T20:26:54.364Z,48.38
2023-05-17T20:29:24.301Z,48.03
2023-05-17T20:31:54.736Z,46.53
2023-05-17T20:34:25.652Z,47.63
2023-05-17T20:37:00.478Z,45.40
2023-05-17T20:39:31.512Z,43.35
2023-05-17T20:42:02.861Z,51.50
2023-05-17T20:44:34.812Z,49.35
2023-05-17T20:47:07.324Z,56.20
2023-05-17T20:49:37.392Z,55.17
2023-05-17T20:52:08.021Z,61.88
2023-05-17T20:54:38.646Z,52.50
2023-05-17T20:57:08.500Z,52.75
2023-05-17T20:59:38.465Z,52.58
2023-05-17T21:02:08.839Z,52.58
2023-05-17T21:04:39.140Z,53.58
2023-05-17T21:07:12.004Z,52.40
2023-05-17T21:09:42.789Z,50.92
2023-05-17T21:12:12.717Z,51.90
2023-05-17T21:14:42.715Z,43.72
2023-05-17T21:17:12.584Z,47.45
2023-05-17T21:19:42.783Z,50.13
2023-05-17T21:22:13.012Z,46.78
2023-05-17T21:24:43.244Z,45.28
2023-05-17T21:27:13.265Z,51.45
2023-05-17T21:29:43.681Z,51.55
2023-05-17T21:32:13.506Z,47.53
2023-05-17T21:34:44.860Z,43.45
2023-05-17T21:37:15.972Z,49.42
2023-05-17T21:39:46.479Z,47.22
2023-05-17T21:42:16.262Z,46.22
2023-05-17T21:44:46.255Z,48.30
2023-05-17T21:47:16.108Z,51.65
2023-05-17T21:49:46.301Z,52.95
2023-05-17T21:52:16.073Z,54.53
2023-05-17T21:54:46.892Z,47.55
2023-05-17T21:57:17.049Z,60.92
2023-05-17T21:59:47.563Z,46.75
2023-05-17T22:02:17.983Z,44.33
2023-05-17T22:04:49.187Z,45.83
2023-05-17T22:07:19.458Z,42.00
2023-05-17T22:09:49.771Z,42.65
2023-05-17T22:12:27.029Z,45.78
2023-05-17T22:14:58.284Z,48.17
2023-05-17T22:17:43.160Z,44.05
2023-05-17T22:20:21.068Z,45.70
2023-05-17T22:22:51.212Z,47.30
2023-05-17T22:25:22.198Z,45.38
2023-05-17T22:27:52.624Z,50.60
2023-05-17T22:30:23.227Z,50.35
2023-05-17T22:32:56.076Z,45.20
2023-05-17T22:35:26.440Z,51.58
2023-05-17T22:37:59.839Z,46.58
2023-05-17T22:40:30.423Z,48.65
2023-05-17T22:43:01.498Z,48.28
2023-05-17T22:45:34.347Z,51.92
2023-05-17T22:48:05.227Z,43.70
2023-05-17T22:50:36.081Z,50.58
2023-05-17T22:53:07.570Z,46.97
2023-05-17T22:55:37.843Z,57.63
2023-05-17T22:58:08.080Z,53.80
2023-05-17T23:00:38.232Z,54.30
2023-05-17T23:03:08.511Z,49.80
2023-05-17T23:05:39.187Z,48.13
2023-05-17T23:08:09.489Z,46.10
2023-05-17T23:10:39.443Z,55.38
2023-05-17T23:13:10.527Z,45.15
2023-05-17T23:15:42.153Z,49.88
2023-05-17T23:18:13.229Z,49.08
2023-05-17T23:20:44.470Z,49.83
2023-05-17T23:23:17.930Z,47.15
2023-05-17T23:25:50.044Z,45.95
2023-05-17T23:28:20.274Z,48.55
2023-05-17T23:30:50.488Z,48.08
2023-05-17T23:33:20.894Z,46.90
2023-05-17T23:35:50.748Z,47.47
2023-05-17T23:38:21.130Z,46.03
2023-05-17T23:40:51.212Z,49.40
2023-05-17T23:43:21.445Z,47.83
2023-05-17T23:45:51.546Z,44.70
2023-05-17T23:48:22.683Z,48.13
2023-05-17T23:50:53.004Z,45.20
2023-05-17T23:53:24.998Z,43.78
2023-05-17T23:55:56.807Z,43.38
2023-05-17T23:58:27.517Z,45.90
